Time;durP1;ratioP1;P1;durP2;ratioP2;P2;SDS_P1;SDS_P2;PMS_P1;PMS_P2;Temp;Humidity;BMP_temperature;BMP_pressure;BME280_temperature;BME280_humidity;BME280_pressure;Samples;Min_cycle;Max_cycle;Signal;HPM_P1;HPM_P2
2022/12/12 00:02:01;;;;;;;25.80;13.20;;;0.80;99.90;;;;;;5056864;28;20106;-85
2022/12/12 00:04:26;;;;;;;25.05;12.10;;;0.80;99.90;;;;;;5040612;28;20049;-85
2022/12/12 00:06:52;;;;;;;25.10;12.40;;;0.80;99.90;;;;;;5049458;28;20052;-85
2022/12/12 00:09:18;;;;;;;24.70;13.13;;;0.80;99.90;;;;;;5042580;28;20100;-84
2022/12/12 00:11:44;;;;;;;24.98;11.40;;;0.80;99.90;;;;;;5045285;28;20046;-85
2022/12/12 00:14:10;;;;;;;28.88;12.48;;;0.80;99.90;;;;;;5041638;28;20037;-84
2022/12/12 00:16:35;;;;;;;25.55;11.65;;;0.80;99.90;;;;;;5038239;28;20095;-85
2022/12/12 00:19:01;;;;;;;26.42;12.52;;;0.80;99.90;;;;;;5039763;28;20049;-85
2022/12/12 00:21:28;;;;;;;28.30;12.65;;;0.80;99.90;;;;;;5075732;28;20042;-85
2022/12/12 00:23:56;;;;;;;27.65;11.80;;;0.80;99.90;;;;;;5045442;28;20044;-86
2022/12/12 00:26:31;;;;;;;25.17;11.98;;;0.80;99.90;;;;;;5043329;28;20083;-86
2022/12/12 00:29:02;;;;;;;27.95;13.15;;;0.80;99.90;;;;;;5047755;28;20084;-85
2022/12/12 00:31:28;;;;;;;28.40;13.70;;;0.80;99.90;;;;;;5031682;28;20041;-85
2022/12/12 00:33:57;;;;;;;27.58;12.23;;;1.40;99.90;;;;;;5048135;28;20403;-85
2022/12/12 00:36:25;;;;;;;22.67;10.82;;;0.80;99.90;;;;;;5047938;28;20759;-85
2022/12/12 00:38:51;;;;;;;24.83;11.82;;;0.80;99.90;;;;;;5043151;28;20033;-85
2022/12/12 00:41:18;;;;;;;24.33;11.02;;;0.80;99.90;;;;;;5056645;28;20068;-85
2022/12/12 00:43:43;;;;;;;25.70;12.60;;;0.80;99.90;;;;;;5045721;28;20044;-84
2022/12/12 00:46:22;;;;;;;27.58;11.90;;;0.80;99.90;;;;;;5043379;28;20083;-85
2022/12/12 00:48:54;;;;;;;22.67;10.95;;;0.80;99.90;;;;;;5047304;28;20071;-85
2022/12/12 00:51:22;;;;;;;23.27;11.30;;;0.80;99.90;;;;;;5039507;28;20046;-85
2022/12/12 00:53:49;;;;;;;25.48;11.85;;;0.80;99.90;;;;;;5077966;28;20047;-85
2022/12/12 00:56:20;;;;;;;22.10;11.50;;;0.80;99.90;;;;;;5080509;28;20033;-85
2022/12/12 00:58:46;;;;;;;25.00;12.60;;;0.80;99.90;;;;;;5041204;28;20656;-85
2022/12/12 01:01:16;;;;;;;25.02;11.77;;;0.80;99.90;;;;;;5039228;28;20030;-85
2022/12/12 01:03:42;;;;;;;24.95;11.35;;;0.80;99.90;;;;;;5042101;28;20049;-86
2022/12/12 01:06:11;;;;;;;25.88;11.50;;;0.80;99.90;;;;;;5047654;28;20040;-85
2022/12/12 01:08:46;;;;;;;26.85;12.38;;;0.80;99.90;;;;;;5038554;28;20045;-85
2022/12/12 01:11:13;;;;;;;24.20;10.82;;;0.80;99.90;;;;;;5031246;28;20198;-85
2022/12/12 01:13:40;;;;;;;27.40;12.13;;;0.80;99.90;;;;;;5041011;28;20032;-84
2022/12/12 01:16:09;;;;;;;28.52;11.88;;;0.80;99.90;;;;;;5036528;28;20037;-85
2022/12/12 01:18:36;;;;;;;24.67;12.25;;;0.80;99.90;;;;;;5038842;28;20096;-85
2022/12/12 01:21:02;;;;;;;28.77;11.65;;;0.80;99.90;;;;;;5046565;28;20492;-84
2022/12/12 01:23:28;;;;;;;24.83;12.18;;;0.80;99.90;;;;;;5045867;28;20044;-85
2022/12/12 01:26:10;;;;;;;23.27;11.70;;;0.80;99.90;;;;;;5047846;28;20041;-85
2022/12/12 01:28:37;;;;;;;25.13;11.23;;;0.80;99.90;;;;;;5045264;28;20084;-85
2022/12/12 01:31:03;;;;;;;23.67;12.40;;;0.80;99.90;;;;;;5042564;28;20108;-85
2022/12/12 01:33:29;;;;;;;25.75;11.43;;;0.80;99.90;;;;;;5043758;28;20111;-85
2022/12/12 01:35:55;;;;;;;25.02;11.10;;;0.80;99.90;;;;;;5061314;28;20080;-85
2022/12/12 01:38:23;;;;;;;22.90;10.40;;;0.80;99.90;;;;;;5033511;28;20041;-85
2022/12/12 01:40:50;;;;;;;21.83;11.10;;;0.80;99.90;;;;;;5032949;28;20045;-85
2022/12/12 01:43:18;;;;;;;25.77;11.52;;;0.80;99.90;;;;;;5051449;28;20407;-85
2022/12/12 01:45:57;;;;;;;25.33;12.13;;;1.10;99.90;;;;;;5029590;28;20040;-85
2022/12/12 01:48:29;;;;;;;24.00;11.82;;;0.80;99.90;;;;;;5041612;28;20048;-85
2022/12/12 01:50:57;;;;;;;25.23;10.00;;;0.80;99.90;;;;;;5047901;28;20056;-84
2022/12/12 01:53:24;;;;;;;25.77;12.70;;;0.80;99.90;;;;;;5039591;28;20033;-85
2022/12/12 01:55:52;;;;;;;24.25;11.57;;;0.80;99.90;;;;;;5042002;28;20083;-85
2022/12/12 01:58:18;;;;;;;23.40;11.10;;;0.80;99.90;;;;;;5057099;28;20098;-84
2022/12/12 02:00:44;;;;;;;23.50;11.35;;;0.80;99.90;;;;;;5038360;28;20049;-84
2022/12/12 02:03:10;;;;;;;26.30;11.70;;;0.70;99.90;;;;;;5034503;28;20037;-85
2022/12/12 02:05:42;;;;;;;23.95;11.48;;;0.70;99.90;;;;;;5043491;28;20093;-85
2022/12/12 02:08:09;;;;;;;24.88;11.27;;;0.70;99.90;;;;;;5040902;28;20506;-84
2022/12/12 02:10:35;;;;;;;24.95;11.20;;;0.70;99.90;;;;;;5042357;28;20452;-84
2022/12/12 02:13:05;;;;;;;24.60;12.10;;;0.70;99.90;;;;;;5044583;28;20079;-85
2022/12/12 02:15:39;;;;;;;24.98;11.85;;;0.70;99.90;;;;;;5043029;28;20067;-85
2022/12/12 02:18:28;;;;;;;25.75;12.05;;;0.70;99.90;;;;;;5043200;28;20036;-83
2022/12/12 02:21:14;;;;;;;27.10;12.15;;;0.70;99.90;;;;;;5045016;28;20063;-85
2022/12/12 02:23:50;;;;;;;22.85;10.70;;;0.70;99.90;;;;;;5032489;28;20043;-84
2022/12/12 02:26:29;;;;;;;25.90;12.20;;;0.70;99.90;;;;;;5039658;28;20037;-85
2022/12/12 02:29:26;;;;;;;23.75;11.13;;;0.70;99.90;;;;;;5036880;28;20543;-85
2022/12/12 02:32:05;;;;;;;21.38;10.57;;;0.70;99.90;;;;;;5034574;28;20064;-85
2022/12/12 02:34:51;;;;;;;23.67;11.95;;;0.70;99.90;;;;;;5036333;28;20502;-85
2022/12/12 02:37:20;;;;;;;27.17;11.75;;;0.90;99.90;;;;;;5074534;28;20041;-84
2022/12/12 02:40:17;;;;;;;26.20;12.48;;;1.50;99.90;;;;;;5038502;28;20464;-83
2022/12/12 02:42:50;;;;;;;25.55;11.70;;;0.70;99.90;;;;;;5075117;28;20036;-84
2022/12/12 02:45:32;;;;;;;23.17;11.18;;;0.70;99.90;;;;;;5031382;28;20053;-84
2022/12/12 02:48:12;;;;;;;24.10;10.45;;;0.70;99.90;;;;;;5047168;28;20054;-84
2022/12/12 02:50:39;;;;;;;23.27;11.52;;;0.70;99.90;;;;;;5038527;28;20049;-84
2022/12/12 02:53:05;;;;;;;21.85;10.55;;;0.70;99.90;;;;;;5046974;28;20079;-85
2022/12/12 02:55:31;;;;;;;21.55;10.25;;;0.70;99.90;;;;;;5040628;28;20036;-84
2022/12/12 02:58:04;;;;;;;26.95;12.80;;;0.70;99.90;;;;;;5042275;28;20407;-84
2022/12/12 03:00:39;;;;;;;24.85;11.13;;;0.70;99.90;;;;;;5046898;28;20037;-84
2022/12/12 03:09:38;;;;;;;25.58;10.60;;;0.70;99.90;;;;;;5036991;28;20045;-84
2022/12/12 03:12:25;;;;;;;25.40;10.98;;;0.70;99.90;;;;;;5043945;28;20124;-84
2022/12/12 03:15:04;;;;;;;22.00;10.73;;;0.70;99.90;;;;;;5033897;28;20148;-84
2022/12/12 03:17:41;;;;;;;22.77;11.05;;;0.70;99.90;;;;;;5066814;28;20040;-84
2022/12/12 03:20:26;;;;;;;21.60;11.15;;;0.70;99.90;;;;;;5070195;28;20072;-84
2022/12/12 03:23:20;;;;;;;24.05;10.75;;;0.70;99.90;;;;;;5035793;28;20044;-85
2022/12/12 03:25:58;;;;;;;27.23;12.13;;;0.70;99.90;;;;;;5037867;28;20080;-85
2022/12/12 03:28:42;;;;;;;22.02;10.70;;;0.70;99.90;;;;;;5043139;28;20131;-85
2022/12/12 03:31:10;;;;;;;23.50;11.07;;;1.50;99.90;;;;;;5038635;28;20065;-84
2022/12/12 03:34:13;;;;;;;22.85;10.25;;;0.70;99.90;;;;;;5044027;28;20033;-85
2022/12/12 03:39:41;;;;;;;23.40;10.15;;;0.60;99.90;;;;;;5553008;22;20069;-79
2022/12/12 03:42:29;;;;;;;22.40;10.60;;;0.70;99.90;;;;;;5036262;28;20045;-80
2022/12/12 03:45:01;;;;;;;23.67;11.10;;;0.60;99.90;;;;;;5041989;28;20394;-80
2022/12/12 03:48:12;;;;;;;22.80;11.27;;;0.70;99.90;;;;;;5038681;28;20115;-80
2022/12/12 03:50:58;;;;;;;26.02;11.77;;;0.70;99.90;;;;;;5039720;28;20041;-80
2022/12/12 03:53:39;;;;;;;24.83;10.98;;;0.70;99.90;;;;;;5021696;28;20494;-82
2022/12/12 03:56:15;;;;;;;22.58;10.15;;;0.70;99.90;;;;;;5034930;28;20044;-81
2022/12/12 03:59:03;;;;;;;22.25;10.68;;;0.70;99.90;;;;;;5037988;28;20045;-80
2022/12/12 04:01:42;;;;;;;28.77;12.32;;;0.70;99.90;;;;;;5038852;28;20052;-82
2022/12/12 04:04:23;;;;;;;22.73;10.88;;;0.60;99.90;;;;;;5034261;28;20076;-80
2022/12/12 04:06:58;;;;;;;25.02;12.60;;;0.60;99.90;;;;;;5040274;28;20507;-81
2022/12/12 04:15:34;;;;;;;23.08;11.75;;;0.70;99.90;;;;;;5040393;28;20075;-80
2022/12/12 04:18:25;;;;;;;20.67;10.07;;;0.70;99.90;;;;;;5034777;28;20046;-80
2022/12/12 04:24:01;;;;;;;21.77;10.52;;;0.60;99.90;;;;;;5035534;28;20735;-80
2022/12/12 04:26:40;;;;;;;22.88;10.65;;;0.60;99.90;;;;;;5031445;28;20037;-80
2022/12/12 04:29:12;;;;;;;21.58;9.82;;;0.70;99.90;;;;;;5053118;28;20045;-80
2022/12/12 04:31:45;;;;;;;22.50;10.52;;;0.70;99.90;;;;;;5036560;28;20577;-80
2022/12/12 04:34:37;;;;;;;19.25;9.57;;;0.60;99.90;;;;;;5038624;28;20049;-81
2022/12/12 04:37:05;;;;;;;20.83;9.85;;;0.70;99.90;;;;;;5032842;28;20053;-81
2022/12/12 04:39:33;;;;;;;26.88;11.60;;;0.60;99.90;;;;;;5038848;28;20061;-80
2022/12/12 04:42:02;;;;;;;23.88;11.07;;;0.70;99.90;;;;;;5033848;28;20037;-80
2022/12/12 04:44:30;;;;;;;24.70;12.73;;;0.70;99.90;;;;;;5033945;28;21906;-81
2022/12/12 04:46:59;;;;;;;24.10;10.82;;;0.60;99.90;;;;;;5035723;28;20537;-80
2022/12/12 04:49:28;;;;;;;26.15;10.98;;;0.70;99.90;;;;;;5039616;28;20084;-80
2022/12/12 04:52:08;;;;;;;22.88;11.20;;;0.60;99.90;;;;;;5019362;28;20490;-80
2022/12/12 04:55:03;;;;;;;23.75;11.18;;;0.60;99.90;;;;;;5036223;28;20087;-80
2022/12/12 04:57:42;;;;;;;24.27;11.32;;;0.70;99.90;;;;;;5029956;28;20029;-80
2022/12/12 05:00:10;;;;;;;25.75;11.32;;;0.70;99.90;;;;;;5038857;28;20120;-80
2022/12/12 05:02:51;;;;;;;26.65;10.77;;;0.60;99.90;;;;;;5034600;28;20061;-80
2022/12/12 05:05:47;;;;;;;25.42;11.32;;;0.70;99.90;;;;;;5037689;28;20037;-80
2022/12/12 05:08:24;;;;;;;28.88;11.82;;;0.60;99.90;;;;;;5042153;28;20087;-80
2022/12/12 05:10:53;;;;;;;24.75;11.32;;;0.60;99.90;;;;;;5031863;28;20038;-81
2022/12/12 05:13:22;;;;;;;24.45;10.85;;;0.60;99.90;;;;;;5038128;28;20044;-80
2022/12/12 05:15:51;;;;;;;24.65;12.13;;;0.60;99.90;;;;;;5036006;28;20072;-80
2022/12/12 05:18:19;;;;;;;23.42;10.68;;;0.60;99.90;;;;;;5042027;28;20037;-80
2022/12/12 05:20:45;;;;;;;24.77;11.43;;;1.60;99.90;;;;;;5035557;28;20041;-80
2022/12/12 05:23:10;;;;;;;24.55;12.07;;;0.60;99.90;;;;;;5036320;28;20075;-80
2022/12/12 05:25:36;;;;;;;25.08;10.80;;;0.60;99.90;;;;;;5034095;28;20045;-80
2022/12/12 05:28:02;;;;;;;22.90;10.40;;;0.60;99.90;;;;;;5043039;28;20592;-80
2022/12/12 05:30:28;;;;;;;24.55;11.43;;;0.60;99.90;;;;;;5034539;28;20037;-80
2022/12/12 05:32:54;;;;;;;27.38;11.57;;;0.60;99.90;;;;;;5035091;28;20037;-80
2022/12/12 05:35:20;;;;;;;20.85;10.10;;;0.60;99.90;;;;;;5043071;28;20490;-80
2022/12/12 05:37:46;;;;;;;26.52;12.13;;;0.60;99.90;;;;;;5036535;28;20108;-80
2022/12/12 05:40:12;;;;;;;21.27;10.50;;;0.60;99.90;;;;;;5034508;28;21173;-80
2022/12/12 05:42:38;;;;;;;22.95;10.52;;;0.60;99.90;;;;;;5035696;28;20403;-80
2022/12/12 05:45:06;;;;;;;22.55;10.82;;;0.60;99.90;;;;;;5031850;28;20037;-80
2022/12/12 05:47:32;;;;;;;24.05;11.18;;;0.60;99.90;;;;;;5033834;28;20037;-80
2022/12/12 05:49:58;;;;;;;23.52;11.52;;;0.60;99.90;;;;;;5036620;28;20038;-80
2022/12/12 05:52:24;;;;;;;23.23;10.40;;;0.60;99.90;;;;;;5036252;28;21650;-80
2022/12/12 05:54:50;;;;;;;22.73;11.02;;;0.60;99.90;;;;;;5039348;28;20037;-80
2022/12/12 05:57:17;;;;;;;23.88;11.55;;;0.60;99.90;;;;;;5037606;28;20041;-80
2022/12/12 05:59:46;;;;;;;19.85;10.30;;;0.60;99.90;;;;;;5037098;28;20087;-80
2022/12/12 06:02:13;;;;;;;25.58;12.00;;;0.60;99.90;;;;;;5035388;28;20771;-80
2022/12/12 06:04:39;;;;;;;21.48;10.05;;;0.60;99.90;;;;;;5043136;28;20029;-80
2022/12/12 06:07:05;;;;;;;24.95;11.70;;;0.60;99.90;;;;;;5035870;28;20045;-79
2022/12/12 06:09:31;;;;;;;24.60;11.93;;;0.60;99.90;;;;;;5034350;28;20025;-79
2022/12/12 06:11:57;;;;;;;24.83;11.88;;;0.80;99.90;;;;;;5034172;28;20095;-80
2022/12/12 06:14:24;;;;;;;24.50;11.45;;;0.60;99.90;;;;;;5034312;28;20041;-80
2022/12/12 06:16:51;;;;;;;27.02;12.20;;;0.60;99.90;;;;;;5033562;28;20044;-80
2022/12/12 06:19:19;;;;;;;25.48;11.35;;;0.60;99.90;;;;;;5035788;28;20051;-79
2022/12/12 06:21:45;;;;;;;26.80;11.52;;;0.60;99.90;;;;;;5038542;28;20471;-80
2022/12/12 06:24:11;;;;;;;27.90;14.07;;;0.60;99.90;;;;;;5030558;28;20041;-80
2022/12/12 06:26:37;;;;;;;26.48;15.25;;;0.60;99.90;;;;;;5034736;28;20353;-80
2022/12/12 06:29:03;;;;;;;23.95;11.82;;;0.60;99.90;;;;;;5035868;28;20550;-80
2022/12/12 06:31:29;;;;;;;26.38;12.15;;;0.60;99.90;;;;;;5031053;28;20049;-80
2022/12/12 06:33:55;;;;;;;25.77;11.73;;;0.60;99.90;;;;;;5039570;28;20091;-79
2022/12/12 06:36:23;;;;;;;24.38;11.52;;;0.60;99.90;;;;;;5041804;28;20029;-79
2022/12/12 06:38:58;;;;;;;21.80;11.60;;;0.60;99.90;;;;;;5036046;28;20068;-79
2022/12/12 06:41:25;;;;;;;24.80;12.35;;;0.60;99.90;;;;;;5038402;28;20028;-79
2022/12/12 06:43:52;;;;;;;26.98;13.38;;;0.90;99.90;;;;;;5032016;28;20038;-78
2022/12/12 06:46:20;;;;;;;24.60;13.23;;;0.60;99.90;;;;;;5039706;28;20044;-79
2022/12/12 06:48:46;;;;;;;25.15;12.20;;;0.60;99.90;;;;;;5031123;28;20049;-80
2022/12/12 06:51:25;;;;;;;24.88;11.48;;;0.60;99.90;;;;;;5037211;28;20080;-80
2022/12/12 06:53:51;;;;;;;23.10;11.15;;;0.60;99.90;;;;;;5032267;28;20052;-79
2022/12/12 06:56:22;;;;;;;26.48;12.38;;;0.60;99.90;;;;;;5030877;28;20061;-79
2022/12/12 06:58:49;;;;;;;23.80;11.45;;;0.60;99.90;;;;;;5038539;28;20419;-79
2022/12/12 07:01:20;;;;;;;23.10;11.73;;;0.80;99.90;;;;;;5039469;28;20045;-80
2022/12/12 07:03:48;;;;;;;22.55;11.40;;;0.60;99.90;;;;;;5037243;28;20049;-79
2022/12/12 07:06:14;;;;;;;27.60;12.63;;;0.60;99.90;;;;;;5036052;28;20042;-79
2022/12/12 07:08:40;;;;;;;25.05;11.52;;;0.60;99.90;;;;;;5041409;28;20420;-79
2022/12/12 07:11:25;;;;;;;24.35;11.52;;;0.60;99.90;;;;;;5032808;28;20087;-80
2022/12/12 07:13:52;;;;;;;25.15;11.38;;;0.60;99.90;;;;;;5041676;28;20080;-80
2022/12/12 07:16:19;;;;;;;22.83;11.20;;;0.50;99.90;;;;;;5038217;28;20045;-80
2022/12/12 07:18:45;;;;;;;25.63;11.23;;;0.50;99.90;;;;;;5043071;28;20037;-81
2022/12/12 07:21:14;;;;;;;23.92;11.38;;;0.50;99.90;;;;;;5040015;28;20136;-80
2022/12/12 07:23:40;;;;;;;23.30;10.70;;;0.50;99.90;;;;;;5043035;28;20038;-80
2022/12/12 07:26:10;;;;;;;24.80;11.85;;;0.50;99.90;;;;;;5036974;28;20399;-86
2022/12/12 07:28:37;;;;;;;25.67;11.93;;;0.50;99.90;;;;;;5031647;28;20388;-84
2022/12/12 07:31:07;;;;;;;23.83;10.90;;;0.50;99.90;;;;;;5039939;28;20049;-84
2022/12/12 07:33:34;;;;;;;22.73;11.02;;;0.50;99.90;;;;;;5038573;28;20083;-84
2022/12/12 07:35:59;;;;;;;26.10;11.88;;;0.50;99.90;;;;;;5041170;28;20482;-82
2022/12/12 07:38:26;;;;;;;22.80;11.27;;;0.50;99.90;;;;;;5036655;28;20040;-82
2022/12/12 07:40:51;;;;;;;22.48;11.00;;;0.50;99.90;;;;;;5037015;28;20052;-81
2022/12/12 07:43:17;;;;;;;26.40;12.02;;;0.50;99.90;;;;;;5037144;28;20083;-81
2022/12/12 07:45:44;;;;;;;22.50;10.93;;;0.50;99.90;;;;;;5034444;28;20112;-81
2022/12/12 07:48:10;;;;;;;23.48;11.57;;;0.50;99.90;;;;;;5034343;28;20482;-81
2022/12/12 07:50:38;;;;;;;23.60;11.23;;;0.50;99.90;;;;;;5034430;28;20044;-84
2022/12/12 07:53:03;;;;;;;24.35;11.55;;;0.50;99.90;;;;;;5038348;28;20087;-82
2022/12/12 07:55:29;;;;;;;25.38;11.30;;;0.50;99.90;;;;;;5039468;28;20421;-83
2022/12/12 07:57:55;;;;;;;21.65;11.00;;;0.50;99.90;;;;;;5033495;28;20422;-83
2022/12/12 08:00:21;;;;;;;24.15;11.63;;;0.50;99.90;;;;;;5028409;28;20087;-83
2022/12/12 08:02:47;;;;;;;26.08;12.55;;;0.50;99.90;;;;;;5030324;28;20045;-83
2022/12/12 08:05:14;;;;;;;24.02;11.68;;;0.50;99.90;;;;;;5030093;28;20037;-83
2022/12/12 08:07:39;;;;;;;24.17;12.02;;;0.50;99.90;;;;;;5038713;28;20041;-82
2022/12/12 08:10:06;;;;;;;23.98;11.60;;;0.50;99.90;;;;;;5029980;28;20080;-82
2022/12/12 08:12:31;;;;;;;23.70;11.32;;;0.60;99.90;;;;;;5030359;28;20029;-82
2022/12/12 08:14:57;;;;;;;23.98;10.55;;;0.60;99.90;;;;;;5035636;28;20060;-83
2022/12/12 08:17:23;;;;;;;24.30;11.50;;;0.60;99.90;;;;;;5029525;28;20034;-83
2022/12/12 08:19:48;;;;;;;24.00;11.15;;;0.60;99.90;;;;;;5031020;28;20045;-85
2022/12/12 08:22:14;;;;;;;25.10;10.95;;;0.60;99.90;;;;;;5036099;28;20079;-85
2022/12/12 08:24:40;;;;;;;28.80;12.50;;;0.60;99.90;;;;;;5027681;28;20039;-86
2022/12/12 08:27:05;;;;;;;22.35;10.90;;;0.70;99.90;;;;;;5029380;28;20048;-86
2022/12/12 08:29:31;;;;;;;21.30;10.80;;;0.60;99.90;;;;;;5035627;28;20465;-85
2022/12/12 08:31:57;;;;;;;21.52;10.80;;;0.70;99.90;;;;;;5029786;28;20041;-86
2022/12/12 08:34:22;;;;;;;23.70;10.90;;;0.70;99.90;;;;;;5030253;28;20088;-86
2022/12/12 08:36:48;;;;;;;22.58;10.80;;;0.70;99.90;;;;;;5030327;28;20046;-85
2022/12/12 08:39:15;;;;;;;22.55;10.77;;;0.70;99.90;;;;;;5029820;28;20053;-84
2022/12/12 08:41:43;;;;;;;21.65;11.40;;;0.70;99.90;;;;;;5030065;28;20064;-86
2022/12/12 08:44:10;;;;;;;23.23;11.73;;;0.70;99.90;;;;;;5035091;28;20109;-85
2022/12/12 08:46:37;;;;;;;22.45;11.30;;;0.70;99.90;;;;;;5029795;28;20033;-86
2022/12/12 08:49:02;;;;;;;21.42;11.50;;;0.70;99.90;;;;;;5029748;28;20100;-85
2022/12/12 08:51:28;;;;;;;21.92;12.40;;;0.70;99.90;;;;;;5030012;28;20041;-85
2022/12/12 08:53:54;;;;;;;24.08;12.65;;;0.70;99.90;;;;;;5028331;28;20117;-85
2022/12/12 08:56:21;;;;;;;24.40;12.50;;;0.70;99.90;;;;;;5029656;28;20159;-85
2022/12/12 08:58:48;;;;;;;22.70;11.52;;;0.70;99.90;;;;;;5035172;28;20127;-85
2022/12/12 09:01:16;;;;;;;22.63;12.13;;;0.80;99.90;;;;;;5028324;28;20041;-85
2022/12/12 09:03:42;;;;;;;24.50;10.77;;;0.80;99.90;;;;;;5029617;28;20358;-86
2022/12/12 09:06:13;;;;;;;21.95;10.75;;;0.80;99.90;;;;;;5029476;28;20522;-85
2022/12/12 09:08:39;;;;;;;19.90;10.10;;;0.80;99.90;;;;;;5029284;28;20044;-85
2022/12/12 09:11:05;;;;;;;22.27;10.77;;;0.90;99.90;;;;;;5029836;28;20042;-85
2022/12/12 09:13:31;;;;;;;23.27;11.05;;;0.90;99.90;;;;;;5029941;28;20033;-85
2022/12/12 09:15:56;;;;;;;24.98;11.55;;;0.90;99.90;;;;;;5029570;28;20033;-85
2022/12/12 09:18:23;;;;;;;22.33;11.50;;;0.90;99.90;;;;;;5029448;28;20049;-85
2022/12/12 09:20:54;;;;;;;25.10;12.43;;;1.00;99.90;;;;;;5029343;28;20057;-85
2022/12/12 09:23:21;;;;;;;22.10;11.18;;;1.00;99.90;;;;;;5029125;28;20037;-85
2022/12/12 09:25:47;;;;;;;23.50;11.00;;;1.00;99.90;;;;;;5028614;28;20034;-85
2022/12/12 09:28:15;;;;;;;24.17;10.95;;;1.00;99.90;;;;;;5040055;28;20040;-85
2022/12/12 09:30:42;;;;;;;19.85;10.60;;;1.10;99.90;;;;;;5032027;28;20042;-85
2022/12/12 09:33:08;;;;;;;24.77;12.57;;;1.10;99.90;;;;;;5028536;28;20407;-85
2022/12/12 09:35:34;;;;;;;22.80;12.07;;;1.10;99.90;;;;;;5028846;28;20041;-85
2022/12/12 09:38:00;;;;;;;22.35;11.38;;;1.10;99.90;;;;;;5040392;28;20041;-86
2022/12/12 09:40:49;;;;;;;21.83;11.25;;;1.20;99.90;;;;;;5028209;28;20597;-85
2022/12/12 09:43:18;;;;;;;22.92;11.35;;;1.20;99.90;;;;;;5033079;28;20083;-85
2022/12/12 09:45:45;;;;;;;20.70;10.95;;;1.60;99.90;;;;;;5028803;28;20098;-85
2022/12/12 09:48:20;;;;;;;22.02;10.73;;;1.20;99.90;;;;;;5028973;28;20043;-86
2022/12/12 09:50:48;;;;;;;21.38;11.65;;;1.20;99.90;;;;;;5028970;28;20041;-85
2022/12/12 09:53:17;;;;;;;22.48;10.90;;;1.30;99.90;;;;;;5028487;28;20568;-85
2022/12/12 09:56:03;;;;;;;20.60;11.13;;;1.30;99.90;;;;;;5028538;28;20044;-85
2022/12/12 09:58:47;;;;;;;21.88;10.63;;;1.30;99.90;;;;;;5033842;28;20033;-85
2022/12/12 10:01:19;;;;;;;20.33;10.98;;;1.30;99.90;;;;;;5029645;28;20068;-85
2022/12/12 10:04:12;;;;;;;21.00;10.45;;;1.30;99.90;;;;;;5028819;28;20065;-86
2022/12/12 10:06:46;;;;;;;21.48;10.35;;;1.40;99.90;;;;;;5028694;28;20052;-85
2022/12/12 10:09:41;;;;;;;18.80;9.53;;;1.40;99.90;;;;;;5028523;28;20039;-85
2022/12/12 10:12:11;;;;;;;21.88;10.68;;;1.40;99.90;;;;;;5039642;28;20412;-86
2022/12/12 10:14:39;;;;;;;22.20;11.65;;;1.40;99.90;;;;;;5034910;28;20037;-84
2022/12/12 10:17:18;;;;;;;22.02;11.50;;;1.40;99.90;;;;;;5032159;28;20033;-84
2022/12/12 10:19:56;;;;;;;21.33;10.98;;;1.40;99.90;;;;;;5028888;28;20117;-84
2022/12/12 10:22:39;;;;;;;21.58;10.75;;;0.70;99.90;;;;;;5028411;28;20049;-82
2022/12/12 10:25:22;;;;;;;20.23;10.25;;;1.40;99.90;;;;;;5028300;28;20033;-82
2022/12/12 10:28:08;;;;;;;21.50;10.70;;;1.50;99.90;;;;;;5029572;28;20045;-83
2022/12/12 10:30:43;;;;;;;21.10;10.55;;;1.40;99.90;;;;;;5033696;28;20033;-83
2022/12/12 10:33:35;;;;;;;20.17;10.95;;;1.40;99.90;;;;;;5035337;28;20041;-82
2022/12/12 10:36:16;;;;;;;20.95;11.23;;;1.50;99.90;;;;;;5033479;28;20108;-85
2022/12/12 10:39:19;;;;;;;20.48;10.45;;;1.50;99.90;;;;;;5027793;28;20081;-84
2022/12/12 10:41:50;;;;;;;20.48;9.98;;;1.60;99.90;;;;;;5029569;28;20077;-83
2022/12/12 10:44:29;;;;;;;20.15;10.48;;;1.60;99.90;;;;;;5031807;28;20716;-83
2022/12/12 10:47:05;;;;;;;26.88;11.50;;;1.60;99.90;;;;;;5034771;28;20033;-83
2022/12/12 10:49:31;;;;;;;19.83;10.27;;;1.60;99.90;;;;;;5031866;28;20046;-83
2022/12/12 10:52:00;;;;;;;18.95;10.45;;;1.70;99.90;;;;;;5036178;28;20112;-83
2022/12/12 10:54:30;;;;;;;18.75;10.15;;;1.60;99.90;;;;;;5037563;28;20082;-83
2022/12/12 10:57:08;;;;;;;21.35;11.00;;;1.60;99.90;;;;;;5033587;28;20387;-83
2022/12/12 10:59:39;;;;;;;18.83;10.00;;;1.60;99.90;;;;;;5032066;28;20471;-83
2022/12/12 11:02:27;;;;;;;21.27;11.27;;;1.60;99.90;;;;;;5042515;28;20088;-83
2022/12/12 11:05:15;;;;;;;20.92;10.10;;;1.60;99.90;;;;;;5037886;28;20077;-83
2022/12/12 11:07:44;;;;;;;23.05;12.25;;;1.60;99.90;;;;;;5030951;28;20068;-83
2022/12/12 11:10:19;;;;;;;24.27;11.88;;;1.60;99.90;;;;;;5031917;28;20052;-83
2022/12/12 11:12:44;;;;;;;20.92;10.35;;;1.60;99.90;;;;;;5032720;28;20046;-83
2022/12/12 11:15:16;;;;;;;23.27;12.68;;;1.60;99.90;;;;;;5034654;28;20072;-82
2022/12/12 11:17:41;;;;;;;22.95;11.15;;;1.60;99.90;;;;;;5031283;28;20494;-82
2022/12/12 11:20:16;;;;;;;23.63;11.85;;;1.70;99.90;;;;;;5034007;28;20056;-81
2022/12/12 11:22:42;;;;;;;22.05;12.10;;;2.00;99.90;;;;;;5031459;28;20048;-81
2022/12/12 11:25:29;;;;;;;24.80;12.60;;;1.80;99.90;;;;;;5031746;28;20044;-81
2022/12/12 11:27:58;;;;;;;24.38;11.82;;;1.80;99.90;;;;;;5033446;28;20041;-81
2022/12/12 11:30:40;;;;;;;25.30;12.88;;;1.80;99.90;;;;;;5031515;28;20029;-81
2022/12/12 11:33:15;;;;;;;27.45;12.60;;;1.80;99.90;;;;;;5034064;28;20113;-81
2022/12/12 11:35:41;;;;;;;;;;;1.80;99.90;;;;;;5035783;28;20103;-81
2022/12/12 11:38:25;;;;;;;26.17;13.10;;;1.80;99.90;;;;;;5037270;28;19939;-81
2022/12/12 11:41:06;;;;;;;22.95;11.93;;;1.90;99.90;;;;;;5031392;28;20391;-81
2022/12/12 11:43:58;;;;;;;24.27;13.30;;;1.90;99.90;;;;;;5032405;28;20052;-81
2022/12/12 11:46:31;;;;;;;27.75;13.35;;;1.90;99.90;;;;;;5035396;28;20104;-81
2022/12/12 11:49:02;;;;;;;25.67;13.07;;;2.10;99.90;;;;;;5031156;28;20026;-81
2022/12/12 11:51:38;;;;;;;24.55;12.07;;;1.90;99.90;;;;;;5034129;28;20041;-81
2022/12/12 11:54:21;;;;;;;27.58;14.23;;;1.90;99.90;;;;;;5032209;28;20113;-81
2022/12/12 11:57:04;;;;;;;23.33;12.48;;;1.90;99.90;;;;;;5040832;28;20381;-81
2022/12/12 11:59:36;;;;;;;25.67;12.45;;;1.90;99.90;;;;;;5035817;28;20108;-81
2022/12/12 12:02:31;;;;;;;28.17;12.85;;;1.90;99.90;;;;;;5032643;28;20123;-81
2022/12/12 12:05:34;;;;;;;26.05;12.02;;;1.90;99.90;;;;;;5038628;28;20053;-81
2022/12/12 12:08:22;;;;;;;25.83;13.10;;;1.90;99.90;;;;;;5033496;28;20078;-82
2022/12/12 12:10:50;;;;;;;26.23;12.73;;;1.90;99.90;;;;;;5032640;28;20103;-81
2022/12/12 12:13:41;;;;;;;23.90;12.38;;;2.00;99.90;;;;;;5042804;28;20129;-81
2022/12/12 12:16:38;;;;;;;24.30;12.40;;;2.00;99.90;;;;;;5034678;28;20052;-81
2022/12/12 12:19:07;;;;;;;24.10;12.82;;;2.00;99.90;;;;;;4975620;28;20061;-81
2022/12/12 12:21:55;;;;;;;25.20;12.07;;;2.00;99.90;;;;;;4987379;28;20054;-81
2022/12/12 12:24:28;;;;;;;24.45;11.55;;;2.00;99.90;;;;;;4976916;28;20061;-81
2022/12/12 12:27:03;;;;;;;24.40;12.30;;;2.00;99.90;;;;;;4977675;28;20049;-81
2022/12/12 12:29:51;;;;;;;25.38;13.05;;;2.00;99.90;;;;;;4991234;28;20066;-81
2022/12/12 12:32:37;;;;;;;22.63;12.52;;;2.00;99.90;;;;;;4990881;28;20177;-81
2022/12/12 12:35:29;;;;;;;26.65;12.73;;;2.00;99.90;;;;;;4973437;28;20044;-81
2022/12/12 12:38:19;;;;;;;23.73;12.50;;;1.90;99.90;;;;;;4998046;28;20042;-81
2022/12/12 12:41:09;;;;;;;22.40;12.18;;;1.90;99.90;;;;;;4987940;28;20046;-81
2022/12/12 12:44:26;;;;;;;27.60;14.73;;;1.90;99.90;;;;;;4997243;28;20049;-81
2022/12/12 12:47:16;;;;;;;24.85;12.98;;;1.90;99.90;;;;;;4949853;28;20090;-81
2022/12/12 12:49:57;;;;;;;23.75;12.77;;;1.90;99.90;;;;;;4949723;28;20061;-82
2022/12/12 12:52:31;;;;;;;22.27;12.07;;;2.00;99.90;;;;;;4933765;29;20061;-82
2022/12/12 12:54:59;;;;;;;26.30;12.60;;;2.00;99.90;;;;;;4944512;28;20047;-81
2022/12/12 12:57:35;;;;;;;23.50;12.55;;;2.00;99.90;;;;;;4996109;28;20061;-81
2022/12/12 13:00:14;;;;;;;23.55;12.15;;;2.00;99.90;;;;;;4994988;28;20495;-83
2022/12/12 13:02:53;;;;;;;23.02;12.65;;;2.00;99.90;;;;;;4996107;28;20050;-84
2022/12/12 13:05:43;;;;;;;26.25;12.63;;;2.00;99.90;;;;;;4994904;28;20043;-84
2022/12/12 13:08:23;;;;;;;24.05;11.60;;;2.00;99.90;;;;;;4972556;28;20038;-84
2022/12/12 13:10:54;;;;;;;24.77;11.98;;;1.90;99.90;;;;;;4988217;28;20141;-83
2022/12/12 13:13:31;;;;;;;25.70;12.80;;;1.90;99.90;;;;;;5000253;28;20480;-84
2022/12/12 13:16:19;;;;;;;20.60;11.13;;;2.00;99.90;;;;;;4994569;28;20062;-84
2022/12/12 13:18:50;;;;;;;23.55;12.18;;;2.50;99.90;;;;;;5002216;28;20052;-84
2022/12/12 13:21:43;;;;;;;25.30;12.75;;;2.80;99.90;;;;;;4997722;28;20088;-85
2022/12/12 13:24:20;;;;;;;26.98;12.20;;;2.00;99.90;;;;;;5029827;28;20491;-85
2022/12/12 13:27:24;;;;;;;23.17;11.98;;;2.00;99.90;;;;;;5030040;28;20049;-85